Time;durP1;ratioP1;P1;durP2;ratioP2;P2;SDS_P1;SDS_P2;PMS_P1;PMS_P2;Temp;Humidity;BMP_temperature;BMP_pressure;BME280_temperature;BME280_humidity;BME280_pressure;Samples;Min_cycle;Max_cycle;Signal;HPM_P1;HPM_P2
2021/08/01 00:02:04;;;;;;;9.53;7.45;;;;;;;29.18;46.01;99161.92;1843436;77;21531;-60
2021/08/01 00:04:31;;;;;;;8.45;7.67;;;;;;;29.17;46.08;99157.02;1825948;77;21266;-62
2021/08/01 00:06:59;;;;;;;11.20;7.87;;;;;;;29.16;46.15;99152.66;1837291;77;22426;-62
2021/08/01 00:09:27;;;;;;;11.48;7.85;;;;;;;29.15;46.18;99150.25;1821500;77;21550;-62
2021/08/01 00:11:55;;;;;;;8.83;7.92;;;;;;;29.13;46.16;99146.45;1837752;77;23114;-63
2021/08/01 00:14:21;;;;;;;9.05;8.10;;;;;;;29.12;46.28;99148.91;1823712;77;21484;-61
2021/08/01 00:16:49;;;;;;;9.78;7.95;;;;;;;29.12;46.27;99148.08;1824883;77;21490;-61
2021/08/01 00:19:16;;;;;;;8.55;7.78;;;;;;;29.10;46.34;99142.11;1836470;77;21992;-61
2021/08/01 00:21:43;;;;;;;8.80;8.00;;;;;;;29.10;46.36;99150.31;1838399;77;21025;-62
2021/08/01 00:24:09;;;;;;;9.75;8.18;;;;;;;29.07;46.35;99153.65;1824783;78;21132;-62
2021/08/01 00:26:36;;;;;;;9.55;7.60;;;;;;;29.07;46.48;99153.65;1817563;77;21009;-61
2021/08/01 00:29:02;;;;;;;8.65;7.72;;;;;;;29.06;46.65;99150.67;1820388;78;20982;-60
2021/08/01 00:31:29;;;;;;;9.05;8.20;;;;;;;29.05;46.65;99153.14;1822589;78;21288;-61
2021/08/01 00:33:57;;;;;;;9.55;8.35;;;;;;;29.02;46.60;99153.20;1824870;77;21512;-60
2021/08/01 00:36:24;;;;;;;9.20;8.05;;;;;;;29.02;46.62;99155.37;1821076;77;21118;-62
2021/08/01 00:38:51;;;;;;;8.63;7.83;;;;;;;29.03;46.77;99154.81;1829319;77;21513;-62
2021/08/01 00:41:17;;;;;;;8.85;7.92;;;;;;;29.02;46.88;99149.11;1843323;77;21047;-61
2021/08/01 00:43:44;;;;;;;8.73;7.45;;;;;;;29.02;47.00;99150.47;1844450;77;20994;-61
2021/08/01 00:46:10;;;;;;;11.60;7.45;;;;;;;29.02;47.07;99154.58;1861341;77;21524;-61
2021/08/01 00:48:38;;;;;;;9.23;8.00;;;;;;;29.01;47.04;99154.30;1861908;77;21293;-62
2021/08/01 00:51:06;;;;;;;8.68;7.87;;;;;;;28.99;47.04;99154.64;1834287;77;21034;-62
2021/08/01 00:53:32;;;;;;;9.78;7.78;;;;;;;28.99;47.12;99158.73;1851556;77;21597;-62
2021/08/01 00:56:03;;;;;;;8.90;8.00;;;;;;;28.98;47.13;99156.30;1850875;77;21513;-62
2021/08/01 00:58:30;;;;;;;9.28;8.38;;;;;;;28.97;47.09;99158.77;1872027;76;21450;-62
2021/08/01 01:03:48;;;;;;;9.48;8.50;;;;;;;28.94;47.23;99157.46;1857201;76;21547;-61
2021/08/01 01:06:22;;;;;;;9.38;8.50;;;;;;;28.93;47.21;99157.77;1837465;77;21017;-62
2021/08/01 01:09:04;;;;;;;9.65;8.70;;;;;;;28.91;47.36;99161.36;1843122;77;21045;-62
2021/08/01 01:11:50;;;;;;;8.48;7.65;;;;;;;28.89;47.33;99160.29;1859755;76;21528;-63
2021/08/01 01:14:22;;;;;;;9.35;8.48;;;;;;;28.86;47.55;99151.34;1858485;76;21867;-63
2021/08/01 01:16:55;;;;;;;9.80;8.93;;;;;;;28.85;47.62;99146.98;1842083;77;21081;-61
2021/08/01 01:20:08;;;;;;;9.38;8.35;;;;;;;28.81;47.69;99137.20;1837585;76;26294;-62
2021/08/01 01:23:15;;;;;;;9.08;7.65;;;;;;;28.81;47.69;99137.20;1855180;77;21558;-62
2021/08/01 01:26:03;;;;;;;8.83;7.90;;;;;;;28.80;47.76;99142.44;1856441;77;21451;-64
2021/08/01 01:29:01;;;;;;;9.23;8.43;;;;;;;28.76;47.83;99140.59;1858907;76;21797;-61
2021/08/01 01:31:47;;;;;;;10.23;8.00;;;;;;;28.75;47.86;99141.72;1855712;76;21025;-62
2021/08/01 01:34:23;;;;;;;9.15;8.25;;;;;;;28.72;47.85;99147.78;1834662;77;21021;-62
2021/08/01 01:36:51;;;;;;;8.78;7.95;;;;;;;28.69;47.88;99143.74;1829344;77;21001;-61
2021/08/01 01:39:18;;;;;;;8.95;7.97;;;;;;;28.67;47.93;99137.77;1806741;77;21524;-62
2021/08/01 01:42:02;;;;;;;9.05;8.33;;;;;;;28.66;48.06;99142.97;1858246;77;21134;-61
2021/08/01 01:44:37;;;;;;;9.25;8.35;;;;;;;28.63;48.10;99139.49;1837389;77;21490;-62
2021/08/01 01:47:05;;;;;;;9.38;8.43;;;;;;;28.62;48.22;99138.66;1844852;77;21563;-61
2021/08/01 01:49:32;;;;;;;10.23;8.75;;;;;;;28.62;48.22;99137.86;1829987;77;20998;-62
2021/08/01 01:52:00;;;;;;;10.00;8.75;;;;;;;28.63;48.26;99135.39;1842094;77;21071;-61
2021/08/01 01:54:27;;;;;;;9.88;9.08;;;;;;;28.62;48.31;99126.37;1839617;77;21809;-61
2021/08/01 01:56:54;;;;;;;9.60;8.60;;;;;;;28.64;48.35;99117.87;1845398;77;20985;-62
2021/08/01 01:59:23;;;;;;;9.68;8.85;;;;;;;28.67;48.35;99116.48;1841473;77;21547;-62
2021/08/01 02:01:50;;;;;;;10.48;8.23;;;;;;;28.67;48.36;99115.11;1846931;76;21520;-61
2021/08/01 02:04:17;;;;;;;9.25;8.33;;;;;;;28.69;48.42;99118.34;1848857;76;21072;-62
2021/08/01 02:06:58;;;;;;;8.40;7.70;;;;;;;28.70;48.40;99114.48;1865293;76;21268;-61
2021/08/01 02:10:02;;;;;;;8.55;7.83;;;;;;;28.70;48.41;99115.28;1778230;80;21009;-62
2021/08/01 02:12:42;;;;;;;9.80;8.88;;;;;;;28.70;48.42;99119.38;1792014;78;21505;-62
2021/08/01 02:15:13;;;;;;;9.35;8.45;;;;;;;28.70;48.47;99119.95;1794742;78;21088;-62
2021/08/01 02:17:46;;;;;;;8.88;8.08;;;;;;;28.70;48.50;99118.02;1808239;78;21470;-62
2021/08/01 02:20:14;;;;;;;;;;;;;;;28.70;48.58;99112.55;1801056;78;21517;-61
2021/08/01 02:22:43;;;;;;;8.58;7.78;;;;;;;28.70;48.64;99106.28;1820909;78;20540;-61
2021/08/01 02:25:10;;;;;;;9.13;8.33;;;;;;;28.62;48.73;99105.88;1797688;78;21523;-63
2021/08/01 02:27:37;;;;;;;9.03;8.13;;;;;;;28.62;48.95;99101.77;1819362;78;21476;-62
2021/08/01 02:30:06;;;;;;;8.90;8.03;;;;;;;28.63;49.03;99101.23;1779104;78;21029;-62
2021/08/01 02:32:33;;;;;;;9.38;8.45;;;;;;;28.64;49.11;99112.41;1748627;79;21116;-62
2021/08/01 02:35:01;;;;;;;8.85;8.00;;;;;;;28.64;49.21;99124.70;1823010;78;21553;-61
2021/08/01 02:37:28;;;;;;;9.63;8.55;;;;;;;28.63;49.26;99115.70;1814797;78;21072;-62
2021/08/01 02:39:55;;;;;;;9.38;8.03;;;;;;;28.62;49.27;99112.70;1785078;79;21049;-61
2021/08/01 02:42:22;;;;;;;8.93;8.13;;;;;;;28.63;49.35;99112.17;1773589;79;21509;-61
2021/08/01 02:44:49;;;;;;;9.78;8.53;;;;;;;28.63;49.40;99119.00;1770774;79;21281;-62
2021/08/01 02:47:18;;;;;;;9.35;8.28;;;;;;;28.62;49.49;99122.83;1767587;79;21477;-63
2021/08/01 02:49:45;;;;;;;9.73;8.30;;;;;;;28.62;49.55;99126.37;1785160;79;21505;-63
2021/08/01 02:52:15;;;;;;;9.43;8.43;;;;;;;28.60;49.57;99124.49;1791507;79;21508;-63
2021/08/01 02:54:42;;;;;;;9.58;8.73;;;;;;;28.61;49.72;99122.59;1790286;79;21513;-64
2021/08/01 02:57:11;;;;;;;8.53;7.83;;;;;;;28.61;49.74;99123.96;1791312;79;21259;-62
2021/08/01 02:59:38;;;;;;;9.38;8.28;;;;;;;28.59;49.84;99124.26;1780415;79;21056;-62
2021/08/01 03:02:07;;;;;;;9.73;8.75;;;;;;;28.59;49.92;99122.09;1777774;79;21616;-61
2021/08/01 03:04:39;;;;;;;9.80;8.75;;;;;;;28.60;49.97;99130.52;1792709;80;21017;-61
2021/08/01 03:07:07;;;;;;;8.50;7.58;;;;;;;28.58;50.05;99122.63;1740684;80;21579;-61
2021/08/01 03:09:35;;;;;;;9.35;8.18;;;;;;;28.59;50.07;99126.19;1774289;79;21195;-62
2021/08/01 03:12:12;;;;;;;8.93;8.03;;;;;;;28.59;50.08;99133.02;1763932;80;21481;-61
2021/08/01 03:14:40;;;;;;;8.85;8.05;;;;;;;28.59;50.14;99137.11;1759084;80;21518;-61
2021/08/01 03:17:07;;;;;;;9.70;8.70;;;;;;;28.57;50.16;99133.31;1769373;79;21338;-61
2021/08/01 03:19:39;;;;;;;9.40;8.40;;;;;;;28.56;50.23;99133.05;1786461;79;21028;-63
2021/08/01 03:22:06;;;;;;;9.33;8.53;;;;;;;28.56;50.27;99134.41;1761787;80;21163;-62
2021/08/01 03:24:35;;;;;;;9.28;8.48;;;;;;;28.57;50.31;99137.98;1792852;80;21994;-62
2021/08/01 03:27:05;;;;;;;9.40;8.45;;;;;;;28.56;50.38;99143.97;1793213;80;21095;-62
2021/08/01 03:29:33;;;;;;;9.50;8.70;;;;;;;28.56;50.39;99138.51;1792626;79;21015;-61
2021/08/01 03:32:00;;;;;;;9.53;8.63;;;;;;;28.56;50.44;99140.44;1770057;80;21062;-63
2021/08/01 03:34:26;;;;;;;9.35;8.40;;;;;;;28.57;50.45;99142.08;1783643;80;21838;-61
2021/08/01 03:36:53;;;;;;;10.18;8.38;;;;;;;28.57;50.47;99143.44;1775947;80;21041;-61
2021/08/01 03:39:38;;;;;;;9.43;8.53;;;;;;;28.57;50.52;99153.00;1793149;79;21057;-61
2021/08/01 03:42:05;;;;;;;38.50;32.23;;;;;;;28.55;50.65;99158.77;1793270;79;21518;-61
2021/08/01 03:44:32;;;;;;;14.80;12.80;;;;;;;28.56;50.74;99154.91;1793465;80;21057;-61
2021/08/01 03:46:59;;;;;;;11.68;10.48;;;;;;;28.57;50.74;99153.80;1797879;79;21970;-61
2021/08/01 03:49:25;;;;;;;9.45;8.60;;;;;;;28.56;50.78;99148.08;1784883;79;21025;-62
2021/08/01 03:51:52;;;;;;;10.45;9.25;;;;;;;28.57;50.73;99155.17;1793261;79;21100;-61
2021/08/01 03:54:19;;;;;;;10.43;9.33;;;;;;;28.58;50.58;99154.61;1793425;80;21068;-60
2021/08/01 03:56:46;;;;;;;10.68;9.63;;;;;;;28.58;50.56;99162.80;1793748;79;21572;-62
2021/08/01 03:59:12;;;;;;;11.30;9.68;;;;;;;28.59;50.60;99154.87;1794564;79;21865;-61
2021/08/01 04:01:39;;;;;;;10.63;9.38;;;;;;;28.60;50.72;99165.48;1789003;79;21128;-63
2021/08/01 04:04:05;;;;;;;10.28;9.38;;;;;;;28.60;50.66;99171.51;1798998;78;21048;-62
2021/08/01 04:06:35;;;;;;;10.58;9.53;;;;;;;28.61;50.71;99170.41;1798156;78;21072;-61
2021/08/01 04:09:06;;;;;;;10.28;9.28;;;;;;;28.62;50.75;99175.55;1787863;79;21486;-62
2021/08/01 04:11:33;;;;;;;11.30;9.58;;;;;;;28.64;50.72;99168.42;1769349;80;21145;-62
2021/08/01 04:14:00;;;;;;;9.95;8.95;;;;;;;28.66;50.77;99172.23;1771536;79;21009;-62
2021/08/01 04:16:27;;;;;;;10.03;9.13;;;;;;;28.65;50.82;99168.69;1789649;79;21033;-62
2021/08/01 04:18:54;;;;;;;10.63;9.25;;;;;;;28.65;50.93;99170.06;1790010;79;21061;-63
2021/08/01 04:21:20;;;;;;;10.72;9.63;;;;;;;28.65;50.97;99172.79;1792486;79;21384;-62
2021/08/01 04:23:47;;;;;;;9.63;8.83;;;;;;;28.66;50.99;99175.77;1792540;80;21053;-64
2021/08/01 04:26:13;;;;;;;10.38;9.18;;;;;;;28.68;51.01;99176.27;1792968;79;21487;-60
2021/08/01 04:28:40;;;;;;;10.68;9.60;;;;;;;28.69;51.05;99171.07;1792756;80;21580;-62
2021/08/01 04:31:07;;;;;;;11.73;9.30;;;;;;;28.69;51.09;99173.80;1791366;79;21581;-62
2021/08/01 04:33:35;;;;;;;10.35;9.35;;;;;;;28.70;51.14;99171.31;1779750;79;21052;-62
2021/08/01 04:36:02;;;;;;;10.38;9.45;;;;;;;28.71;51.12;99171.58;1798036;78;21018;-61
2021/08/01 04:38:28;;;;;;;11.20;9.90;;;;;;;28.73;51.08;99168.55;1800054;78;21042;-63
2021/08/01 04:40:55;;;;;;;10.32;8.83;;;;;;;28.74;51.08;99169.62;1793940;78;22050;-62
2021/08/01 04:43:22;;;;;;;10.32;9.38;;;;;;;28.75;51.21;99171.78;1802983;79;21022;-62
2021/08/01 04:45:48;;;;;;;9.93;9.03;;;;;;;28.76;51.40;99176.13;1808710;79;21485;-62
2021/08/01 04:48:15;;;;;;;10.23;9.23;;;;;;;28.78;51.57;99172.00;1798063;79;21096;-61
2021/08/01 04:50:41;;;;;;;9.80;8.78;;;;;;;28.80;51.68;99173.03;1811915;79;21496;-62
2021/08/01 04:53:08;;;;;;;11.68;9.30;;;;;;;28.80;51.67;99179.33;1789624;79;21031;-61
2021/08/01 04:55:36;;;;;;;11.12;9.83;;;;;;;28.81;51.66;99180.94;1809943;79;21034;-62
2021/08/01 04:58:03;;;;;;;11.65;10.13;;;;;;;28.83;51.87;99187.47;1813221;79;21543;-62
2021/08/01 05:00:30;;;;;;;12.23;9.20;;;;;;;28.83;51.99;99188.84;1799066;79;22472;-63
2021/08/01 05:03:03;;;;;;;12.43;9.78;;;;;;;28.85;51.92;99183.08;1792393;79;21214;-64
2021/08/01 05:05:40;;;;;;;10.23;8.98;;;;;;;28.85;51.92;99172.14;1774419;79;21330;-62
2021/08/01 05:08:07;;;;;;;11.30;8.90;;;;;;;28.87;51.93;99178.12;1758912;80;22094;-63
2021/08/01 05:10:35;;;;;;;11.12;10.03;;;;;;;28.87;51.85;99170.72;1757844;80;21207;-66
2021/08/01 05:13:06;;;;;;;11.80;9.95;;;;;;;28.90;51.85;99168.75;1785841;79;21147;-64
2021/08/01 05:15:34;;;;;;;11.73;10.53;;;;;;;28.93;51.88;99159.12;1794475;79;22865;-63
2021/08/01 05:18:03;;;;;;;13.10;10.13;;;;;;;28.95;52.16;99165.09;1775102;79;21528;-63
2021/08/01 05:20:30;;;;;;;12.30;10.23;;;;;;;28.96;51.87;99159.90;1784783;80;21612;-63
2021/08/01 05:22:56;;;;;;;11.95;10.68;;;;;;;28.98;52.23;99160.41;1792699;80;21005;-65
2021/08/01 05:25:23;;;;;;;15.55;11.10;;;;;;;28.98;52.03;99155.73;1793124;80;21805;-64
2021/08/01 05:27:49;;;;;;;12.43;11.20;;;;;;;29.00;52.21;99155.44;1772292;80;21572;-65
2021/08/01 05:30:15;;;;;;;16.37;10.55;;;;;;;29.02;52.62;99151.27;1814770;78;21033;-65
2021/08/01 05:32:42;;;;;;;13.78;10.43;;;;;;;29.04;52.45;99148.24;1812359;78;20986;-67
2021/08/01 05:35:09;;;;;;;12.45;10.13;;;;;;;29.06;52.11;99145.20;1801961;79;21533;-64
2021/08/01 05:37:35;;;;;;;13.70;10.23;;;;;;;29.07;51.93;99147.64;1785924;79;22351;-66
2021/08/01 05:40:02;;;;;;;11.83;9.40;;;;;;;29.09;51.69;99148.68;1811681;79;21025;-68
2021/08/01 05:42:28;;;;;;;14.33;10.80;;;;;;;29.08;51.52;99151.18;1811692;79;21463;-67
2021/08/01 05:44:55;;;;;;;10.82;9.75;;;;;;;29.08;51.43;99149.25;1789155;79;21002;-67
2021/08/01 05:47:21;;;;;;;11.12;9.95;;;;;;;29.09;51.40;99156.34;1808226;78;21644;-66
2021/08/01 05:49:48;;;;;;;10.80;9.75;;;;;;;29.10;51.33;99163.42;1811581;79;21887;-67
2021/08/01 05:53:25;;;;;;;12.58;10.18;;;;;;;29.16;51.24;99172.36;1849397;76;22573;-67
2021/08/01 05:55:52;;;;;;;11.60;10.43;;;;;;;29.11;51.17;99171.89;1838261;77;21469;-66
2021/08/01 05:58:18;;;;;;;11.45;10.08;;;;;;;29.12;51.09;99167.22;1816303;78;21085;-67
2021/08/01 06:00:45;;;;;;;11.35;9.63;;;;;;;29.13;50.95;99170.23;1788482;79;22095;-66
2021/08/01 06:03:11;;;;;;;10.18;9.28;;;;;;;29.11;51.07;99160.95;1798655;79;21033;-67
2021/08/01 06:05:38;;;;;;;12.73;10.15;;;;;;;29.11;51.14;99163.69;1800337;79;21049;-67
2021/08/01 06:08:04;;;;;;;12.10;10.58;;;;;;;29.14;51.17;99174.59;1798974;78;21036;-67
2021/08/01 06:10:31;;;;;;;11.80;10.65;;;;;;;29.15;51.07;99166.66;1799084;79;21133;-67
2021/08/01 06:12:57;;;;;;;12.47;10.40;;;;;;;29.16;51.05;99163.59;1801043;78;21569;-67
2021/08/01 06:15:23;;;;;;;11.20;10.05;;;;;;;29.18;51.13;99165.46;1801366;78;21099;-68
2021/08/01 06:17:50;;;;;;;10.93;9.78;;;;;;;29.19;51.17;99163.56;1800594;78;21026;-69
2021/08/01 06:20:17;;;;;;;11.28;10.30;;;;;;;29.21;51.21;99171.70;1793332;79;21036;-67
2021/08/01 06:22:44;;;;;;;11.15;10.05;;;;;;;29.22;51.20;99169.77;1800294;78;21163;-68
2021/08/01 06:25:10;;;;;;;11.25;9.75;;;;;;;29.24;51.25;99164.00;1800298;78;21012;-69
2021/08/01 06:27:37;;;;;;;11.03;9.88;;;;;;;29.25;51.37;99162.90;1786823;78;21524;-67
2021/08/01 06:30:05;;;;;;;11.43;10.32;;;;;;;29.28;51.41;99152.69;1792279;78;21028;-67
2021/08/01 06:32:31;;;;;;;11.85;10.18;;;;;;;29.31;51.47;99159.73;1776967;77;21031;-67
2021/08/01 06:34:58;;;;;;;12.68;10.15;;;;;;;29.34;51.63;99161.03;1790147;79;21146;-67
2021/08/01 06:37:24;;;;;;;12.82;10.38;;;;;;;29.36;51.66;99154.70;1767627;80;21026;-66
2021/08/01 06:39:50;;;;;;;11.60;10.30;;;;;;;29.39;51.56;99163.67;1790283;79;21007;-67
2021/08/01 06:42:17;;;;;;;11.20;10.15;;;;;;;29.41;51.50;99170.44;1784943;80;21233;-68
2021/08/01 06:44:43;;;;;;;11.08;9.93;;;;;;;29.44;51.55;99166.30;1790047;79;21049;-67
2021/08/01 06:47:10;;;;;;;13.28;10.00;;;;;;;29.47;51.51;99167.04;1790334;79;21128;-68
2021/08/01 06:49:37;;;;;;;11.28;10.28;;;;;;;29.48;51.37;99167.87;1784863;80;21507;-67
2021/08/01 06:52:03;;;;;;;12.82;10.75;;;;;;;29.49;51.50;99166.17;1790014;79;21550;-67
2021/08/01 06:54:30;;;;;;;11.93;10.53;;;;;;;29.50;51.50;99162.90;1767197;80;21104;-67
2021/08/01 06:56:57;;;;;;;11.63;10.43;;;;;;;29.53;51.46;99158.95;1781714;79;21087;-67
2021/08/01 06:59:24;;;;;;;11.97;10.78;;;;;;;29.55;51.52;99167.70;1783175;79;21186;-66
2021/08/01 07:01:50;;;;;;;11.95;10.30;;;;;;;29.58;51.57;99176.64;1787182;78;21066;-67
2021/08/01 07:04:17;;;;;;;11.03;10.03;;;;;;;29.60;51.46;99176.34;1775959;78;22182;-67
2021/08/01 07:06:44;;;;;;;12.55;10.15;;;;;;;29.60;51.47;99177.14;1789924;79;21084;-66
2021/08/01 07:09:10;;;;;;;11.15;10.15;;;;;;;29.64;51.63;99175.17;1789823;79;21514;-67
2021/08/01 07:11:37;;;;;;;10.93;9.60;;;;;;;29.66;51.72;99173.73;1782903;79;21720;-68
2021/08/01 07:14:03;;;;;;;10.85;9.85;;;;;;;29.69;51.65;99175.86;1779834;79;21573;-66
2021/08/01 07:16:30;;;;;;;13.85;10.65;;;;;;;29.73;51.59;99176.09;1787251;78;21063;-69
2021/08/01 07:18:56;;;;;;;11.68;10.45;;;;;;;29.76;51.65;99169.41;1784179;79;21788;-67
2021/08/01 07:21:23;;;;;;;12.35;11.15;;;;;;;29.79;51.47;99171.55;1769626;79;21070;-67
2021/08/01 07:23:49;;;;;;;11.20;10.20;;;;;;;29.81;51.41;99171.23;1784375;80;21117;-67
2021/08/01 07:26:17;;;;;;;10.88;9.75;;;;;;;29.84;51.29;99171.17;1789218;79;20989;-67
2021/08/01 07:28:44;;;;;;;11.57;10.48;;;;;;;29.85;51.28;99177.70;1776670;80;21085;-68
2021/08/01 07:31:10;;;;;;;12.10;10.32;;;;;;;29.87;51.20;99168.63;1788915;79;21617;-67
2021/08/01 07:33:36;;;;;;;12.90;11.03;;;;;;;29.88;51.29;99170.26;1764146;80;21084;-66
2021/08/01 07:36:03;;;;;;;11.43;10.32;;;;;;;29.89;51.31;99171.86;1816414;78;21809;-67
2021/08/01 07:38:30;;;;;;;14.68;10.15;;;;;;;29.90;51.34;99163.08;1789890;79;21086;-67
2021/08/01 07:40:56;;;;;;;10.75;9.60;;;;;;;29.92;51.29;99167.14;1789902;79;21011;-68
2021/08/01 07:43:23;;;;;;;11.53;10.43;;;;;;;29.95;51.25;99163.77;1787890;79;21036;-67
2021/08/01 07:45:49;;;;;;;11.28;10.20;;;;;;;29.99;51.11;99166.12;1766545;79;21543;-66
2021/08/01 07:48:16;;;;;;;11.03;10.03;;;;;;;30.03;51.17;99163.58;1787927;79;21297;-66
2021/08/01 07:50:42;;;;;;;10.53;9.53;;;;;;;30.06;51.21;99162.17;1788047;79;21118;-67
2021/08/01 07:53:10;;;;;;;13.40;9.55;;;;;;;30.07;51.27;99153.62;1787893;79;21059;-66
2021/08/01 07:55:37;;;;;;;11.75;10.45;;;;;;;30.12;51.17;99155.44;1795566;79;21020;-67
2021/08/01 07:58:04;;;;;;;11.18;10.00;;;;;;;30.15;51.01;99153.42;1792105;78;21097;-67
2021/08/01 08:00:30;;;;;;;12.15;9.85;;;;;;;30.19;50.90;99154.41;1801910;79;22337;-66
2021/08/01 08:02:56;;;;;;;10.65;9.60;;;;;;;30.24;51.05;99153.49;1799031;79;20997;-66
2021/08/01 08:05:23;;;;;;;11.08;9.90;;;;;;;30.27;50.80;99154.22;1802142;79;21060;-66
2021/08/01 08:07:49;;;;;;;10.30;9.15;;;;;;;30.29;50.65;99153.34;1801893;79;21034;-66
2021/08/01 08:10:16;;;;;;;10.32;9.43;;;;;;;30.32;50.71;99160.41;1800957;79;21571;-66
2021/08/01 08:12:43;;;;;;;10.90;9.80;;;;;;;30.35;50.70;99157.05;1798416;79;22040;-68
2021/08/01 08:15:10;;;;;;;10.65;9.68;;;;;;;30.41;50.65;99163.78;1798724;78;21088;-66
2021/08/01 08:17:37;;;;;;;10.95;9.85;;;;;;;30.41;50.61;99160.47;1801420;79;21688;-67
2021/08/01 08:20:05;;;;;;;10.50;9.20;;;;;;;30.44;50.40;99164.50;1775376;79;21040;-66
2021/08/01 08:22:32;;;;;;;10.58;9.58;;;;;;;30.45;50.21;99166.94;1797729;78;21050;-66
2021/08/01 08:24:58;;;;;;;10.03;9.13;;;;;;;30.49;50.30;99163.81;1794725;79;21280;-66
2021/08/01 08:27:26;;;;;;;9.85;8.85;;;;;;;30.51;50.21;99156.08;1800280;79;21015;-66
2021/08/01 08:29:53;;;;;;;10.00;8.95;;;;;;;30.55;50.04;99157.63;1799635;78;21077;-67
2021/08/01 08:32:19;;;;;;;10.58;9.23;;;;;;;30.57;50.12;99164.41;1801288;79;21082;-67
2021/08/01 08:34:46;;;;;;;10.28;9.38;;;;;;;30.58;49.88;99164.67;1799543;79;21542;-66
2021/08/01 08:37:12;;;;;;;11.95;9.85;;;;;;;30.61;49.83;99161.84;1797418;79;21058;-67
2021/08/01 08:39:40;;;;;;;13.22;9.40;;;;;;;30.62;49.93;99165.39;1801058;79;21068;-66
2021/08/01 08:42:06;;;;;;;11.95;9.30;;;;;;;30.62;49.77;99162.65;1798519;78;21579;-67
2021/08/01 08:44:35;;;;;;;11.08;9.78;;;;;;;30.63;49.93;99161.54;1798345;78;21674;-67
2021/08/01 08:47:03;;;;;;;12.80;9.68;;;;;;;30.64;49.89;99165.34;1798361;79;21025;-67
2021/08/01 08:49:30;;;;;;;10.48;9.23;;;;;;;30.65;49.98;99158.72;1798329;78;21139;-66
2021/08/01 08:51:57;;;;;;;9.95;9.05;;;;;;;30.67;49.99;99166.06;1797059;79;21022;-65
2021/08/01 08:54:38;;;;;;;10.18;9.05;;;;;;;30.68;49.96;99160.04;1795383;78;21032;-67
2021/08/01 08:57:26;;;;;;;10.40;9.25;;;;;;;30.70;50.31;99164.07;1798417;78;21476;-67
2021/08/01 09:00:07;;;;;;;10.95;9.50;;;;;;;30.72;50.34;99163.19;1798360;79;21084;-65
2021/08/01 09:02:36;;;;;;;10.85;9.68;;;;;;;30.75;50.25;99162.57;1788997;79;21295;-67
2021/08/01 09:05:06;;;;;;;10.78;9.75;;;;;;;30.80;50.31;99159.44;1776738;78;21615;-67
2021/08/01 09:07:35;;;;;;;11.18;10.10;;;;;;;30.81;50.27;99159.12;1794822;78;21024;-67
2021/08/01 09:10:02;;;;;;;13.20;9.80;;;;;;;30.85;50.33;99162.02;1794878;78;21032;-65
2021/08/01 09:12:28;;;;;;;11.83;9.58;;;;;;;30.89;50.36;99168.52;1800040;78;21023;-67
2021/08/01 09:15:20;;;;;;;10.78;9.70;;;;;;;30.92;50.23;99170.06;1801362;78;21018;-67
2021/08/01 09:17:47;;;;;;;12.58;9.73;;;;;;;30.97;50.04;99170.50;1798802;78;21079;-66
2021/08/01 09:20:23;;;;;;;10.55;9.58;;;;;;;31.00;49.99;99173.16;1778181;78;21556;-67
2021/08/01 09:23:06;;;;;;;10.40;9.03;;;;;;;31.02;49.98;99173.64;1775670;79;21048;-67
2021/08/01 09:25:43;;;;;;;12.47;10.58;;;;;;;31.04;49.96;99165.36;1798149;78;21523;-65
2021/08/01 09:28:14;;;;;;;12.18;9.63;;;;;;;31.08;50.18;99177.31;1790980;78;21149;-66
2021/08/01 09:30:53;;;;;;;10.95;9.95;;;;;;;31.12;50.20;99188.46;1796215;79;21975;-67
2021/08/01 09:33:40;;;;;;;12.15;9.93;;;;;;;31.14;49.96;99170.55;1801510;79;21089;-67
2021/08/01 09:36:13;;;;;;;12.43;11.00;;;;;;;31.18;49.93;99165.77;1801672;79;22037;-66
2021/08/01 09:38:58;;;;;;;15.53;10.75;;;;;;;31.22;49.95;99181.30;1799842;79;21443;-67
2021/08/01 09:41:36;;;;;;;10.72;9.65;;;;;;;31.27;49.73;99180.33;1799115;78;21891;-66
2021/08/01 09:44:10;;;;;;;13.22;10.53;;;;;;;31.30;49.53;99183.24;1792953;79;21506;-67
2021/08/01 09:46:48;;;;;;;12.03;9.93;;;;;;;31.32;49.43;99184.30;1776348;79;21099;-66
2021/08/01 09:49:19;;;;;;;13.18;9.00;;;;;;;31.36;49.45;99189.39;1799805;79;21551;-67
2021/08/01 09:51:59;;;;;;;13.30;8.63;;;;;;;31.39;48.35;99190.67;1783631;79;21116;-67
2021/08/01 09:54:27;;;;;;;11.20;8.70;;;;;;;31.38;47.87;99190.45;1791067;79;21131;-66
2021/08/01 09:57:01;;;;;;;10.30;8.03;;;;;;;31.36;47.76;99196.25;1790533;78;21516;-66
2021/08/01 09:59:31;;;;;;;11.00;8.35;;;;;;;31.34;47.86;99189.70;1771040;80;21541;-67
2021/08/01 10:02:02;;;;;;;9.18;7.60;;;;;;;31.36;47.94;99190.77;1786538;79;21084;-65
2021/08/01 10:04:34;;;;;;;11.90;7.25;;;;;;;31.36;47.70;99190.19;1791086;79;21011;-66
2021/08/01 10:07:11;;;;;;;9.05;8.10;;;;;;;31.37;47.69;99181.41;1790189;79;21067;-68
2021/08/01 10:09:44;;;;;;;13.53;8.13;;;;;;;31.39;47.72;99192.87;1791705;79;21267;-66
2021/08/01 10:12:12;;;;;;;11.43;8.28;;;;;;;31.38;47.84;99191.82;1792381;79;21053;-67
2021/08/01 10:14:38;;;;;;;9.20;8.30;;;;;;;31.33;48.25;99185.91;1790945;79;21019;-67
2021/08/01 10:17:06;;;;;;;10.45;8.75;;;;;;;31.29;48.71;99181.64;1790592;79;21556;-67
2021/08/01 10:19:35;;;;;;;10.93;8.80;;;;;;;31.28;48.97;99167.67;1770114;79;21538;-67
2021/08/01 10:22:04;;;;;;;13.03;9.75;;;;;;;31.26;49.50;99171.30;1776331;79;21014;-68
2021/08/01 10:24:41;;;;;;;13.05;8.53;;;;;;;31.24;50.24;99170.81;1781416;78;21543;-66
2021/08/01 10:27:09;;;;;;;16.12;9.75;;;;;;;31.20;50.71;99168.47;1772544;78;21599;-66
2021/08/01 10:29:47;;;;;;;15.10;10.13;;;;;;;31.18;51.27;99171.27;1779151;79;21046;-65
2021/08/01 10:32:19;;;;;;;15.13;9.75;;;;;;;31.15;51.85;99172.14;1790208;79;21186;-67
2021/08/01 10:34:57;;;;;;;13.62;9.83;;;;;;;31.14;52.13;99167.00;1786972;79;21509;-67
2021/08/01 10:37:33;;;;;;;9.30;8.43;;;;;;;31.13;52.45;99164.80;1785423;79;21113;-66
2021/08/01 10:40:03;;;;;;;10.28;9.20;;;;;;;31.12;52.54;99165.95;1790238;79;21534;-66
2021/08/01 10:42:30;;;;;;;12.30;9.50;;;;;;;31.12;53.19;99166.52;1790615;79;21530;-67
2021/08/01 10:44:58;;;;;;;11.10;9.10;;;;;;;31.11;53.35;99162.94;1790312;79;21184;-66
2021/08/01 10:47:24;;;;;;;11.25;8.88;;;;;;;31.11;53.38;99163.52;1791140;79;21064;-66
2021/08/01 10:49:50;;;;;;;11.35;9.75;;;;;;;31.08;53.12;99158.11;1790382;79;21067;-67
2021/08/01 10:52:18;;;;;;;10.20;9.20;;;;;;;31.07;53.07;99163.91;1759032;80;21640;-67
2021/08/01 10:55:00;;;;;;;9.90;9.05;;;;;;;31.06;53.02;99165.85;1794278;78;21572;-67
2021/08/01 10:57:27;;;;;;;10.80;9.80;;;;;;;31.05;53.05;99173.83;1802095;78;21824;-66
2021/08/01 10:59:56;;;;;;;11.48;9.60;;;;;;;31.04;52.91;99181.82;1801291;78;21371;-67
2021/08/01 11:02:25;;;;;;;12.18;10.90;;;;;;;31.02;52.86;99168.16;1799831;78;21088;-67
2021/08/01 11:04:51;;;;;;;15.43;10.35;;;;;;;31.02;53.13;99161.30;1796444;78;21635;-67
2021/08/01 11:07:33;;;;;;;11.75;9.53;;;;;;;31.00;53.22;99154.76;1801467;78;21089;-66
2021/08/01 11:10:12;;;;;;;;;;;;;;;31.00;53.23;99163.56;1798141;78;21847;-66
2021/08/01 11:12:41;;;;;;;12.37;9.33;;;;;;;30.99;53.24;99169.61;1792782;78;20148;-66
2021/08/01 11:15:15;;;;;;;10.43;9.43;;;;;;;30.89;53.34;99169.88;1792337;79;21536;-66
2021/08/01 11:17:51;;;;;;;11.33;9.65;;;;;;;30.90;53.47;99175.05;1796048;78;21509;-65
2021/08/01 11:20:26;;;;;;;11.12;10.03;;;;;;;30.89;53.34;99174.83;1801497;78;21105;-66
2021/08/01 11:22:53;;;;;;;11.88;10.70;;;;;;;30.89;53.18;99163.03;1796391;78;21478;-67
2021/08/01 11:25:42;;;;;;;12.13;10.50;;;;;;;30.87;53.34;99165.28;1798986;78;21074;-67
2021/08/01 11:28:28;;;;;;;12.18;10.82;;;;;;;30.86;53.52;99152.68;1781686;78;21081;-65
2021/08/01 11:31:01;;;;;;;12.10;10.13;;;;;;;30.83;53.69;99148.65;1796468;78;21026;-67
2021/08/01 11:33:40;;;;;;;13.25;10.72;;;;;;;30.81;53.98;99147.33;1801442;78;21502;-68
2021/08/01 11:36:19;;;;;;;10.85;9.80;;;;;;;30.80;54.30;99141.05;1801654;78;21072;-66
2021/08/01 11:38:55;;;;;;;11.45;9.95;;;;;;;30.80;54.45;99135.56;1801330;78;21050;-67
2021/08/01 11:41:33;;;;;;;12.53;10.72;;;;;;;30.78;54.11;99119.42;1801623;78;21746;-67
2021/08/01 11:44:23;;;;;;;11.05;9.98;;;;;;;30.76;53.89;99098.95;1785528;78;21062;-67